sensor_id;sensor_type;location;lat;lon;timestamp;pressure;altitude;pressure_sealevel;temperature;humidity
34065;BME280;20339;49.754;20.158;2023-04-08T00:00:32;96724.83;;;0.21;100.00
34065;BME280;20339;49.754;20.158;2023-04-08T00:03:20;96727.79;;;0.18;100.00
34065;BME280;20339;49.754;20.158;2023-04-08T00:05:51;96727.48;;;0.13;100.00
34065;BME280;20339;49.754;20.158;2023-04-08T00:08:22;96730.79;;;0.10;100.00
34065;BME280;20339;49.754;20.158;2023-04-08T00:10:55;96732.25;;;0.07;100.00
34065;BME280;20339;49.754;20.158;2023-04-08T00:13:26;96729.06;;;0.05;100.00
34065;BME280;20339;49.754;20.158;2023-04-08T00:15:58;96729.48;;;0.02;100.00
34065;BME280;20339;49.754;20.158;2023-04-08T00:18:29;96735.09;;;-0.02;100.00
34065;BME280;20339;49.754;20.158;2023-04-08T00:21:00;96731.08;;;-0.03;100.00
34065;BME280;20339;49.754;20.158;2023-04-08T00:23:32;96731.96;;;-0.03;100.00
34065;BME280;20339;49.754;20.158;2023-04-08T00:26:03;96734.73;;;-0.04;100.00
34065;BME280;20339;49.754;20.158;2023-04-08T00:28:34;96732.95;;;-0.06;100.00
34065;BME280;20339;49.754;20.158;2023-04-08T00:31:06;96730.47;;;-0.08;100.00
34065;BME280;20339;49.754;20.158;2023-04-08T00:33:37;96732.05;;;-0.10;100.00
34065;BME280;20339;49.754;20.158;2023-04-08T00:36:09;96732.49;;;-0.11;100.00
34065;BME280;20339;49.754;20.158;2023-04-08T00:38:40;96734.59;;;-0.11;100.00
34065;BME280;20339;49.754;20.158;2023-04-08T00:41:13;96737.77;;;-0.11;100.00
34065;BME280;20339;49.754;20.158;2023-04-08T00:43:45;96739.28;;;-0.11;100.00
34065;BME280;20339;49.754;20.158;2023-04-08T00:46:16;96740.02;;;-0.10;100.00
34065;BME280;20339;49.754;20.158;2023-04-08T00:48:47;96740.63;;;-0.09;100.00
34065;BME280;20339;49.754;20.158;2023-04-08T00:51:19;96740.19;;;-0.10;100.00
34065;BME280;20339;49.754;20.158;2023-04-08T00:53:50;96740.71;;;-0.10;100.00
34065;BME280;20339;49.754;20.158;2023-04-08T00:56:22;96745.58;;;-0.11;100.00
34065;BME280;20339;49.754;20.158;2023-04-08T00:58:54;96748.81;;;-0.11;100.00
34065;BME280;20339;49.754;20.158;2023-04-08T01:01:33;96753.06;;;-0.10;100.00
34065;BME280;20339;49.754;20.158;2023-04-08T01:04:16;96758.12;;;-0.11;100.00
34065;BME280;20339;49.754;20.158;2023-04-08T01:06:56;96760.27;;;-0.16;100.00
34065;BME280;20339;49.754;20.158;2023-04-08T01:09:34;96760.02;;;-0.19;100.00
34065;BME280;20339;49.754;20.158;2023-04-08T01:12:09;96761.31;;;-0.21;100.00
34065;BME280;20339;49.754;20.158;2023-04-08T01:14:44;96762.85;;;-0.23;100.00
34065;BME280;20339;49.754;20.158;2023-04-08T01:17:19;96764.30;;;-0.26;100.00
34065;BME280;20339;49.754;20.158;2023-04-08T01:19:52;96768.27;;;-0.26;100.00
34065;BME280;20339;49.754;20.158;2023-04-08T01:22:31;96773.23;;;-0.26;100.00
34065;BME280;20339;49.754;20.158;2023-04-08T01:25:07;96771.19;;;-0.23;100.00
34065;BME280;20339;49.754;20.158;2023-04-08T01:27:39;96770.02;;;-0.21;100.00
34065;BME280;20339;49.754;20.158;2023-04-08T01:30:11;96773.56;;;-0.19;100.00
34065;BME280;20339;49.754;20.158;2023-04-08T01:32:44;96775.36;;;-0.18;100.00
34065;BME280;20339;49.754;20.158;2023-04-08T01:35:16;96775.36;;;-0.18;100.00
34065;BME280;20339;49.754;20.158;2023-04-08T01:37:50;96777.08;;;-0.18;100.00
34065;BME280;20339;49.754;20.158;2023-04-08T01:40:21;96778.85;;;-0.18;100.00
34065;BME280;20339;49.754;20.158;2023-04-08T01:42:54;96781.98;;;-0.20;100.00
34065;BME280;20339;49.754;20.158;2023-04-08T01:45:26;96777.89;;;-0.23;100.00
34065;BME280;20339;49.754;20.158;2023-04-08T01:47:59;96780.05;;;-0.24;100.00
34065;BME280;20339;49.754;20.158;2023-04-08T01:50:34;96780.77;;;-0.25;100.00
34065;BME280;20339;49.754;20.158;2023-04-08T01:53:06;96788.23;;;-0.27;100.00
34065;BME280;20339;49.754;20.158;2023-04-08T01:55:39;96782.02;;;-0.30;100.00
34065;BME280;20339;49.754;20.158;2023-04-08T01:58:16;96781.90;;;-0.31;100.00
34065;BME280;20339;49.754;20.158;2023-04-08T02:00:48;96784.31;;;-0.32;100.00
34065;BME280;20339;49.754;20.158;2023-04-08T02:03:23;96785.27;;;-0.34;100.00
34065;BME280;20339;49.754;20.158;2023-04-08T02:05:55;96786.48;;;-0.36;100.00
34065;BME280;20339;49.754;20.158;2023-04-08T02:08:26;96788.39;;;-0.40;100.00
34065;BME280;20339;49.754;20.158;2023-04-08T02:10:57;96786.63;;;-0.42;100.00
34065;BME280;20339;49.754;20.158;2023-04-08T02:13:29;96790.06;;;-0.45;100.00
34065;BME280;20339;49.754;20.158;2023-04-08T02:16:05;96790.28;;;-0.48;100.00
34065;BME280;20339;49.754;20.158;2023-04-08T02:18:41;96790.85;;;-0.50;100.00
34065;BME280;20339;49.754;20.158;2023-04-08T02:21:14;96788.90;;;-0.53;100.00
34065;BME280;20339;49.754;20.158;2023-04-08T02:23:48;96792.52;;;-0.56;100.00
34065;BME280;20339;49.754;20.158;2023-04-08T02:26:22;96796.75;;;-0.61;100.00
34065;BME280;20339;49.754;20.158;2023-04-08T02:28:56;96802.09;;;-0.66;100.00
34065;BME280;20339;49.754;20.158;2023-04-08T02:31:28;96804.13;;;-0.71;100.00
34065;BME280;20339;49.754;20.158;2023-04-08T02:34:00;96801.45;;;-0.76;100.00
34065;BME280;20339;49.754;20.158;2023-04-08T02:36:32;96797.78;;;-0.79;100.00
34065;BME280;20339;49.754;20.158;2023-04-08T02:39:04;96800.59;;;-0.84;100.00
34065;BME280;20339;49.754;20.158;2023-04-08T02:41:35;96798.95;;;-0.88;100.00
34065;BME280;20339;49.754;20.158;2023-04-08T02:44:06;96801.19;;;-0.92;100.00
34065;BME280;20339;49.754;20.158;2023-04-08T02:46:38;96800.63;;;-0.97;100.00
34065;BME280;20339;49.754;20.158;2023-04-08T02:49:09;96806.46;;;-0.99;100.00
34065;BME280;20339;49.754;20.158;2023-04-08T02:51:40;96807.55;;;-1.02;100.00
34065;BME280;20339;49.754;20.158;2023-04-08T02:54:11;96808.23;;;-1.06;100.00
34065;BME280;20339;49.754;20.158;2023-04-08T02:56:42;96810.98;;;-1.08;100.00
34065;BME280;20339;49.754;20.158;2023-04-08T02:59:13;96813.56;;;-1.12;100.00
34065;BME280;20339;49.754;20.158;2023-04-08T03:01:45;96813.05;;;-1.15;100.00
34065;BME280;20339;49.754;20.158;2023-04-08T03:04:16;96815.79;;;-1.17;100.00
34065;BME280;20339;49.754;20.158;2023-04-08T03:06:47;96811.83;;;-1.19;100.00
34065;BME280;20339;49.754;20.158;2023-04-08T03:09:18;96810.70;;;-1.23;100.00
34065;BME280;20339;49.754;20.158;2023-04-08T03:11:50;96814.42;;;-1.27;100.00
34065;BME280;20339;49.754;20.158;2023-04-08T03:14:23;96815.45;;;-1.30;100.00
34065;BME280;20339;49.754;20.158;2023-04-08T03:16:54;96816.33;;;-1.31;100.00
34065;BME280;20339;49.754;20.158;2023-04-08T03:19:25;96817.01;;;-1.32;100.00
34065;BME280;20339;49.754;20.158;2023-04-08T03:21:56;96821.05;;;-1.34;100.00
34065;BME280;20339;49.754;20.158;2023-04-08T03:24:28;96822.17;;;-1.36;100.00
34065;BME280;20339;49.754;20.158;2023-04-08T03:26:59;96826.41;;;-1.39;100.00
34065;BME280;20339;49.754;20.158;2023-04-08T03:29:31;96831.34;;;-1.43;100.00
34065;BME280;20339;49.754;20.158;2023-04-08T03:32:02;96831.82;;;-1.46;100.00
34065;BME280;20339;49.754;20.158;2023-04-08T03:34:34;96835.27;;;-1.49;100.00
34065;BME280;20339;49.754;20.158;2023-04-08T03:37:05;96834.27;;;-1.50;100.00
34065;BME280;20339;49.754;20.158;2023-04-08T03:39:37;96834.38;;;-1.53;100.00
34065;BME280;20339;49.754;20.158;2023-04-08T03:42:08;96842.63;;;-1.51;100.00
34065;BME280;20339;49.754;20.158;2023-04-08T03:44:39;96843.34;;;-1.51;100.00
34065;BME280;20339;49.754;20.158;2023-04-08T03:47:10;96848.30;;;-1.52;100.00
34065;BME280;20339;49.754;20.158;2023-04-08T03:49:41;96847.70;;;-1.56;100.00
34065;BME280;20339;49.754;20.158;2023-04-08T03:52:12;96850.30;;;-1.60;100.00
34065;BME280;20339;49.754;20.158;2023-04-08T03:54:43;96858.46;;;-1.62;100.00
34065;BME280;20339;49.754;20.158;2023-04-08T03:57:14;96861.06;;;-1.62;100.00
34065;BME280;20339;49.754;20.158;2023-04-08T03:59:45;96866.53;;;-1.60;100.00
34065;BME280;20339;49.754;20.158;2023-04-08T04:02:16;96865.94;;;-1.60;100.00
34065;BME280;20339;49.754;20.158;2023-04-08T04:04:48;96862.77;;;-1.58;100.00
34065;BME280;20339;49.754;20.158;2023-04-08T04:07:19;96860.90;;;-1.57;100.00
34065;BME280;20339;49.754;20.158;2023-04-08T04:09:50;96862.66;;;-1.58;100.00
34065;BME280;20339;49.754;20.158;2023-04-08T04:12:24;96868.09;;;-1.63;100.00
34065;BME280;20339;49.754;20.158;2023-04-08T04:14:56;96868.77;;;-1.67;100.00
34065;BME280;20339;49.754;20.158;2023-04-08T04:17:27;96870.37;;;-1.70;100.00
34065;BME280;20339;49.754;20.158;2023-04-08T04:19:58;96873.73;;;-1.65;100.00
34065;BME280;20339;49.754;20.158;2023-04-08T04:22:30;96875.46;;;-1.34;100.00
34065;BME280;20339;49.754;20.158;2023-04-08T04:25:01;96880.30;;;-0.62;100.00
34065;BME280;20339;49.754;20.158;2023-04-08T04:27:32;96879.79;;;0.14;100.00
34065;BME280;20339;49.754;20.158;2023-04-08T04:30:05;96881.90;;;0.89;100.00
34065;BME280;20339;49.754;20.158;2023-04-08T04:32:38;96884.38;;;1.53;100.00
34065;BME280;20339;49.754;20.158;2023-04-08T04:35:09;96886.17;;;2.00;100.00
34065;BME280;20339;49.754;20.158;2023-04-08T04:37:49;96889.83;;;2.49;100.00
34065;BME280;20339;49.754;20.158;2023-04-08T04:40:21;96887.85;;;3.33;100.00
34065;BME280;20339;49.754;20.158;2023-04-08T04:42:52;96889.54;;;4.13;100.00
34065;BME280;20339;49.754;20.158;2023-04-08T04:45:25;96888.38;;;4.89;99.75
34065;BME280;20339;49.754;20.158;2023-04-08T04:47:56;96883.58;;;5.59;97.65
34065;BME280;20339;49.754;20.158;2023-04-08T04:50:27;96885.63;;;6.18;95.94
34065;BME280;20339;49.754;20.158;2023-04-08T04:52:59;96883.45;;;6.14;90.75
34065;BME280;20339;49.754;20.158;2023-04-08T04:55:30;96887.27;;;5.84;89.27
34065;BME280;20339;49.754;20.158;2023-04-08T04:58:01;96888.60;;;6.05;89.61
34065;BME280;20339;49.754;20.158;2023-04-08T05:00:32;96887.98;;;6.51;89.41
34065;BME280;20339;49.754;20.158;2023-04-08T05:03:03;96887.09;;;6.98;88.93
34065;BME280;20339;49.754;20.158;2023-04-08T05:05:35;96885.92;;;7.74;88.70
34065;BME280;20339;49.754;20.158;2023-04-08T05:08:09;96885.86;;;8.63;88.86
34065;BME280;20339;49.754;20.158;2023-04-08T05:10:42;96890.04;;;9.65;87.52
34065;BME280;20339;49.754;20.158;2023-04-08T05:13:16;96894.33;;;10.52;85.76
34065;BME280;20339;49.754;20.158;2023-04-08T05:15:47;96896.16;;;10.94;83.21
34065;BME280;20339;49.754;20.158;2023-04-08T05:18:19;96895.92;;;11.45;81.94
34065;BME280;20339;49.754;20.158;2023-04-08T05:20:51;96894.81;;;12.22;81.25
34065;BME280;20339;49.754;20.158;2023-04-08T05:23:22;96898.03;;;12.78;77.69
34065;BME280;20339;49.754;20.158;2023-04-08T05:25:54;96899.46;;;12.91;73.85
34065;BME280;20339;49.754;20.158;2023-04-08T05:28:25;96905.98;;;12.80;70.56
34065;BME280;20339;49.754;20.158;2023-04-08T05:30:57;96905.98;;;12.86;69.26
34065;BME280;20339;49.754;20.158;2023-04-08T05:33:28;96908.61;;;12.96;68.43
34065;BME280;20339;49.754;20.158;2023-04-08T05:36:00;96911.92;;;13.07;66.45
34065;BME280;20339;49.754;20.158;2023-04-08T05:38:31;96915.92;;;13.26;64.77
34065;BME280;20339;49.754;20.158;2023-04-08T05:41:02;96925.90;;;13.36;63.46
34065;BME280;20339;49.754;20.158;2023-04-08T05:43:34;96924.20;;;13.43;61.93
34065;BME280;20339;49.754;20.158;2023-04-08T05:46:08;96936.08;;;13.53;59.21
34065;BME280;20339;49.754;20.158;2023-04-08T05:48:40;96935.35;;;13.74;59.81
34065;BME280;20339;49.754;20.158;2023-04-08T05:51:15;96937.05;;;14.39;60.13
34065;BME280;20339;49.754;20.158;2023-04-08T05:53:47;96933.02;;;15.16;60.30
34065;BME280;20339;49.754;20.158;2023-04-08T05:56:18;96943.09;;;15.77;58.85
34065;BME280;20339;49.754;20.158;2023-04-08T05:58:50;96942.98;;;16.06;58.02
34065;BME280;20339;49.754;20.158;2023-04-08T06:01:21;96947.04;;;16.73;57.76
34065;BME280;20339;49.754;20.158;2023-04-08T06:03:55;96947.40;;;17.33;56.82
34065;BME280;20339;49.754;20.158;2023-04-08T06:06:27;96953.84;;;18.05;55.82
34065;BME280;20339;49.754;20.158;2023-04-08T06:08:58;96954.34;;;18.71;55.08
34065;BME280;20339;49.754;20.158;2023-04-08T06:11:29;96952.54;;;19.36;54.09
34065;BME280;20339;49.754;20.158;2023-04-08T06:14:00;96954.64;;;19.94;53.16
34065;BME280;20339;49.754;20.158;2023-04-08T06:16:35;96954.34;;;20.49;52.42
34065;BME280;20339;49.754;20.158;2023-04-08T06:19:06;96954.17;;;21.18;51.90
34065;BME280;20339;49.754;20.158;2023-04-08T06:21:37;96956.92;;;21.86;50.29
34065;BME280;20339;49.754;20.158;2023-04-08T06:24:08;96963.41;;;22.39;49.29
34065;BME280;20339;49.754;20.158;2023-04-08T06:26:40;96966.25;;;22.80;46.97
34065;BME280;20339;49.754;20.158;2023-04-08T06:29:11;96967.63;;;20.96;42.63
34065;BME280;20339;49.754;20.158;2023-04-08T06:31:42;96969.38;;;19.29;45.31
34065;BME280;20339;49.754;20.158;2023-04-08T06:34:13;96972.02;;;19.47;45.43
34065;BME280;20339;49.754;20.158;2023-04-08T06:36:44;96973.95;;;19.59;45.44
34065;BME280;20339;49.754;20.158;2023-04-08T06:39:17;96970.84;;;19.27;44.59
34065;BME280;20339;49.754;20.158;2023-04-08T06:41:49;96972.06;;;19.41;45.52
34065;BME280;20339;49.754;20.158;2023-04-08T06:44:21;96965.72;;;20.66;45.76
34065;BME280;20339;49.754;20.158;2023-04-08T06:46:52;96969.53;;;21.95;44.74
34065;BME280;20339;49.754;20.158;2023-04-08T06:49:23;96970.94;;;21.86;40.40
34065;BME280;20339;49.754;20.158;2023-04-08T06:51:55;96977.11;;;22.04;42.13
34065;BME280;20339;49.754;20.158;2023-04-08T06:54:27;96976.59;;;22.56;42.58
34065;BME280;20339;49.754;20.158;2023-04-08T06:56:59;96970.21;;;23.71;42.18
34065;BME280;20339;49.754;20.158;2023-04-08T06:59:33;96964.67;;;24.48;39.47
34065;BME280;20339;49.754;20.158;2023-04-08T07:02:04;96967.52;;;23.89;36.43
34065;BME280;20339;49.754;20.158;2023-04-08T07:04:35;96974.05;;;23.28;36.08
34065;BME280;20339;49.754;20.158;2023-04-08T07:07:06;96978.48;;;22.07;34.95
34065;BME280;20339;49.754;20.158;2023-04-08T07:09:38;96980.98;;;21.11;35.84
34065;BME280;20339;49.754;20.158;2023-04-08T07:12:12;96984.09;;;20.49;33.71
34065;BME280;20339;49.754;20.158;2023-04-08T07:14:43;96984.81;;;19.37;35.07
34065;BME280;20339;49.754;20.158;2023-04-08T07:17:14;96984.73;;;19.19;37.71
34065;BME280;20339;49.754;20.158;2023-04-08T07:19:46;96979.35;;;20.17;37.87
34065;BME280;20339;49.754;20.158;2023-04-08T07:22:18;96990.38;;;20.53;33.17
34065;BME280;20339;49.754;20.158;2023-04-08T07:24:50;96996.80;;;19.54;35.48
34065;BME280;20339;49.754;20.158;2023-04-08T07:27:21;96999.79;;;19.58;37.39
34065;BME280;20339;49.754;20.158;2023-04-08T07:29:54;97005.19;;;18.78;37.44
34065;BME280;20339;49.754;20.158;2023-04-08T07:32:26;97004.11;;;18.70;38.74
34065;BME280;20339;49.754;20.158;2023-04-08T07:34:59;97002.41;;;20.39;39.15
34065;BME280;20339;49.754;20.158;2023-04-08T07:37:30;96997.48;;;21.52;36.04
34065;BME280;20339;49.754;20.158;2023-04-08T07:40:02;97002.73;;;20.43;36.18
34065;BME280;20339;49.754;20.158;2023-04-08T07:42:33;97006.25;;;19.85;34.49
34065;BME280;20339;49.754;20.158;2023-04-08T07:45:05;97010.40;;;18.79;33.76
34065;BME280;20339;49.754;20.158;2023-04-08T07:47:37;97012.30;;;17.15;35.24
34065;BME280;20339;49.754;20.158;2023-04-08T07:50:09;97015.28;;;15.66;36.42
34065;BME280;20339;49.754;20.158;2023-04-08T07:52:41;97018.55;;;14.73;39.25
34065;BME280;20339;49.754;20.158;2023-04-08T07:55:12;97013.32;;;14.75;40.24
34065;BME280;20339;49.754;20.158;2023-04-08T07:57:43;97005.54;;;15.48;41.19
34065;BME280;20339;49.754;20.158;2023-04-08T08:00:15;97001.69;;;16.97;41.52
34065;BME280;20339;49.754;20.158;2023-04-08T08:02:50;97008.71;;;18.40;39.45
34065;BME280;20339;49.754;20.158;2023-04-08T08:05:21;97004.68;;;18.64;38.80
34065;BME280;20339;49.754;20.158;2023-04-08T08:07:54;97004.58;;;19.75;38.96
34065;BME280;20339;49.754;20.158;2023-04-08T08:10:31;97007.29;;;20.39;37.59
34065;BME280;20339;49.754;20.158;2023-04-08T08:13:04;97009.09;;;21.22;36.89
34065;BME280;20339;49.754;20.158;2023-04-08T08:15:35;97010.92;;;22.53;37.38
34065;BME280;20339;49.754;20.158;2023-04-08T08:18:07;97012.80;;;23.73;37.09
34065;BME280;20339;49.754;20.158;2023-04-08T08:20:39;97016.64;;;24.83;36.07
34065;BME280;20339;49.754;20.158;2023-04-08T08:23:10;97021.59;;;24.59;31.26
34065;BME280;20339;49.754;20.158;2023-04-08T08:25:42;97021.95;;;24.24;34.22
34065;BME280;20339;49.754;20.158;2023-04-08T08:28:14;97022.23;;;24.66;34.20
34065;BME280;20339;49.754;20.158;2023-04-08T08:30:45;97021.98;;;24.69;34.18
34065;BME280;20339;49.754;20.158;2023-04-08T08:33:17;97020.12;;;25.08;32.83
34065;BME280;20339;49.754;20.158;2023-04-08T08:35:49;97023.83;;;23.55;29.32
34065;BME280;20339;49.754;20.158;2023-04-08T08:38:20;97023.15;;;21.40;32.11
34065;BME280;20339;49.754;20.158;2023-04-08T08:40:55;97021.69;;;21.78;33.42
34065;BME280;20339;49.754;20.158;2023-04-08T08:43:28;97022.67;;;21.62;34.47
34065;BME280;20339;49.754;20.158;2023-04-08T08:46:02;97023.92;;;21.52;34.26
34065;BME280;20339;49.754;20.158;2023-04-08T08:48:33;97023.13;;;20.57;34.63
34065;BME280;20339;49.754;20.158;2023-04-08T08:51:10;97027.64;;;19.96;34.99
34065;BME280;20339;49.754;20.158;2023-04-08T08:53:42;97028.48;;;18.34;35.34
34065;BME280;20339;49.754;20.158;2023-04-08T08:56:16;97025.42;;;17.26;36.96
34065;BME280;20339;49.754;20.158;2023-04-08T08:58:47;97030.23;;;16.22;36.90
34065;BME280;20339;49.754;20.158;2023-04-08T09:01:33;97034.16;;;14.26;37.65
34065;BME280;20339;49.754;20.158;2023-04-08T09:04:16;97035.29;;;13.60;40.37
34065;BME280;20339;49.754;20.158;2023-04-08T09:06:49;97038.17;;;13.77;40.94
34065;BME280;20339;49.754;20.158;2023-04-08T09:09:48;97040.15;;;13.65;41.72
34065;BME280;20339;49.754;20.158;2023-04-08T09:12:20;97041.30;;;13.44;41.93
34065;BME280;20339;49.754;20.158;2023-04-08T09:15:03;97042.29;;;13.15;42.70
34065;BME280;20339;49.754;20.158;2023-04-08T09:17:38;97045.12;;;12.60;43.13
34065;BME280;20339;49.754;20.158;2023-04-08T09:20:11;97050.17;;;11.98;43.56
34065;BME280;20339;49.754;20.158;2023-04-08T09:23:01;97045.21;;;11.61;44.57
34065;BME280;20339;49.754;20.158;2023-04-08T09:25:33;97045.05;;;11.24;45.67
34065;BME280;20339;49.754;20.158;2023-04-08T09:28:05;97049.48;;;10.96;46.42
34065;BME280;20339;49.754;20.158;2023-04-08T09:30:48;97054.41;;;10.78;47.28
34065;BME280;20339;49.754;20.158;2023-04-08T09:33:19;97051.00;;;10.86;47.93
34065;BME280;20339;49.754;20.158;2023-04-08T09:36:00;97053.04;;;10.95;48.52
34065;BME280;20339;49.754;20.158;2023-04-08T09:38:31;97057.02;;;10.99;48.15
34065;BME280;20339;49.754;20.158;2023-04-08T09:41:07;97061.06;;;10.66;48.43
34065;BME280;20339;49.754;20.158;2023-04-08T09:43:42;97064.20;;;10.44;49.42
34065;BME280;20339;49.754;20.158;2023-04-08T09:46:23;97060.16;;;10.21;49.65
34065;BME280;20339;49.754;20.158;2023-04-08T09:49:04;97062.59;;;9.89;50.19
34065;BME280;20339;49.754;20.158;2023-04-08T09:51:42;97061.73;;;9.80;51.17
34065;BME280;20339;49.754;20.158;2023-04-08T09:54:17;97058.73;;;9.69;51.40
34065;BME280;20339;49.754;20.158;2023-04-08T09:56:53;97056.65;;;9.31;51.32
34065;BME280;20339;49.754;20.158;2023-04-08T09:59:31;97060.76;;;8.76;52.72
34065;BME280;20339;49.754;20.158;2023-04-08T10:02:08;97062.79;;;8.62;53.54
34065;BME280;20339;49.754;20.158;2023-04-08T10:04:42;97064.11;;;8.48;54.22
34065;BME280;20339;49.754;20.158;2023-04-08T10:07:14;97068.05;;;8.33;54.74
34065;BME280;20339;49.754;20.158;2023-04-08T10:09:45;97066.36;;;8.05;55.65
34065;BME280;20339;49.754;20.158;2023-04-08T10:12:18;97067.24;;;8.09;56.07
34065;BME280;20339;49.754;20.158;2023-04-08T10:15:26;97064.34;;;8.26;56.76
34065;BME280;20339;49.754;20.158;2023-04-08T10:21:01;97069.34;;;8.23;56.57
34065;BME280;20339;49.754;20.158;2023-04-08T10:23:56;97073.56;;;7.84;57.37
34065;BME280;20339;49.754;20.158;2023-04-08T10:26:36;97075.13;;;7.94;58.05
34065;BME280;20339;49.754;20.158;2023-04-08T10:29:32;97071.17;;;8.11;57.88
34065;BME280;20339;49.754;20.158;2023-04-08T10:32:04;97073.05;;;8.20;58.35
34065;BME280;20339;49.754;20.158;2023-04-08T10:34:35;97068.02;;;8.24;58.46
34065;BME280;20339;49.754;20.158;2023-04-08T10:37:22;97075.33;;;8.16;58.03
34065;BME280;20339;49.754;20.158;2023-04-08T10:40:02;97080.73;;;8.05;58.43
34065;BME280;20339;49.754;20.158;2023-04-08T10:42:46;97081.30;;;7.88;58.54
34065;BME280;20339;49.754;20.158;2023-04-08T10:45:18;97086.14;;;7.61;58.81
34065;BME280;20339;49.754;20.158;2023-04-08T10:47:50;97091.02;;;7.40;59.05
34065;BME280;20339;49.754;20.158;2023-04-08T10:50:22;97091.14;;;7.16;59.53
34065;BME280;20339;49.754;20.158;2023-04-08T10:52:54;97095.34;;;6.92;60.19
34065;BME280;20339;49.754;20.158;2023-04-08T10:55:26;97096.27;;;6.71;60.74
34065;BME280;20339;49.754;20.158;2023-04-08T10:58:06;97098.89;;;6.57;61.37
34065;BME280;20339;49.754;20.158;2023-04-08T11:00:38;97100.20;;;6.56;61.86
34065;BME280;20339;49.754;20.158;2023-04-08T11:03:11;97096.92;;;6.62;62.12
34065;BME280;20339;49.754;20.158;2023-04-08T11:05:43;97094.63;;;6.63;62.36
34065;BME280;20339;49.754;20.158;2023-04-08T11:08:14;97091.41;;;6.64;62.49
34065;BME280;20339;49.754;20.158;2023-04-08T11:10:47;97087.06;;;6.64;62.72
34065;BME280;20339;49.754;20.158;2023-04-08T11:13:18;97082.17;;;6.70;63.45
34065;BME280;20339;49.754;20.158;2023-04-08T11:15:51;97087.89;;;6.68;63.56
34065;BME280;20339;49.754;20.158;2023-04-08T11:18:25;97086.98;;;6.78;64.31
34065;BME280;20339;49.754;20.158;2023-04-08T11:20:57;97085.40;;;6.86;64.46
34065;BME280;20339;49.754;20.158;2023-04-08T11:23:29;97082.86;;;6.85;64.35
34065;BME280;20339;49.754;20.158;2023-04-08T11:26:02;97079.98;;;6.82;64.66
34065;BME280;20339;49.754;20.158;2023-04-08T11:28:35;97082.45;;;6.86;65.10
34065;BME280;20339;49.754;20.158;2023-04-08T11:31:07;97076.91;;;6.90;65.32
34065;BME280;20339;49.754;20.158;2023-04-08T11:33:40;97074.52;;;6.91;65.70
34065;BME280;20339;49.754;20.158;2023-04-08T11:36:16;97076.13;;;6.92;66.14
34065;BME280;20339;49.754;20.158;2023-04-08T11:38:48;97077.42;;;6.91;66.45
34065;BME280;20339;49.754;20.158;2023-04-08T11:41:19;97076.36;;;6.91;66.62
34065;BME280;20339;49.754;20.158;2023-04-08T11:43:56;97076.98;;;6.94;66.77
34065;BME280;20339;49.754;20.158;2023-04-08T11:46:28;97072.77;;;6.90;66.91
34065;BME280;20339;49.754;20.158;2023-04-08T11:49:03;97077.63;;;6.91;66.97
34065;BME280;20339;49.754;20.158;2023-04-08T11:54:30;97076.86;;;6.90;67.09
34065;BME280;20339;49.754;20.158;2023-04-08T11:57:02;97078.33;;;6.85;67.03
34065;BME280;20339;49.754;20.158;2023-04-08T11:59:35;97079.79;;;6.73;66.75
34065;BME280;20339;49.754;20.158;2023-04-08T12:02:07;97082.44;;;6.59;67.31
34065;BME280;20339;49.754;20.158;2023-04-08T12:04:39;97083.07;;;6.56;67.59
34065;BME280;20339;49.754;20.158;2023-04-08T12:07:10;97086.33;;;6.62;67.80
34065;BME280;20339;49.754;20.158;2023-04-08T12:09:43;97079.30;;;6.72;68.42
34065;BME280;20339;49.754;20.158;2023-04-08T12:12:14;97080.55;;;6.77;68.41
34065;BME280;20339;49.754;20.158;2023-04-08T12:14:46;97080.58;;;6.75;68.56
34065;BME280;20339;49.754;20.158;2023-04-08T12:17:17;97086.90;;;6.66;68.32
34065;BME280;20339;49.754;20.158;2023-04-08T12:19:48;97089.38;;;6.51;68.34
34065;BME280;20339;49.754;20.158;2023-04-08T12:22:19;97086.69;;;6.41;68.69
34065;BME280;20339;49.754;20.158;2023-04-08T12:24:51;97084.01;;;6.28;69.08
34065;BME280;20339;49.754;20.158;2023-04-08T12:27:23;97085.05;;;6.11;69.22
34065;BME280;20339;49.754;20.158;2023-04-08T12:29:54;97087.97;;;5.98;69.54
34065;BME280;20339;49.754;20.158;2023-04-08T12:32:26;97088.98;;;5.90;70.01
34065;BME280;20339;49.754;20.158;2023-04-08T12:34:58;97085.34;;;5.78;70.47
34065;BME280;20339;49.754;20.158;2023-04-08T12:37:29;97088.41;;;5.68;70.55
34065;BME280;20339;49.754;20.158;2023-04-08T12:40:02;97089.36;;;5.60;71.15
34065;BME280;20339;49.754;20.158;2023-04-08T12:42:33;97088.73;;;5.55;71.74
34065;BME280;20339;49.754;20.158;2023-04-08T12:45:05;97084.05;;;5.55;72.14
34065;BME280;20339;49.754;20.158;2023-04-08T12:47:37;97084.72;;;5.56;72.63
34065;BME280;20339;49.754;20.158;2023-04-08T12:50:10;97083.52;;;5.61;73.00
34065;BME280;20339;49.754;20.158;2023-04-08T12:52:42;97078.77;;;5.68;73.31
34065;BME280;20339;49.754;20.158;2023-04-08T12:55:14;97081.27;;;5.75;73.54
34065;BME280;20339;49.754;20.158;2023-04-08T12:57:47;97079.73;;;5.88;73.90
34065;BME280;20339;49.754;20.158;2023-04-08T13:00:18;97078.38;;;5.93;73.65
34065;BME280;20339;49.754;20.158;2023-04-08T13:02:50;97084.28;;;5.91;73.52
34065;BME280;20339;49.754;20.158;2023-04-08T13:05:21;97086.64;;;5.89;73.65
34065;BME280;20339;49.754;20.158;2023-04-08T13:07:53;97084.71;;;5.85;74.00
34065;BME280;20339;49.754;20.158;2023-04-08T13:10:26;97085.10;;;5.82;74.10
34065;BME280;20339;49.754;20.158;2023-04-08T13:12:57;97086.60;;;5.76;74.11
34065;BME280;20339;49.754;20.158;2023-04-08T13:15:29;97086.59;;;5.73;74.16
34065;BME280;20339;49.754;20.158;2023-04-08T13:18:00;97084.77;;;5.74;74.64
34065;BME280;20339;49.754;20.158;2023-04-08T13:20:31;97083.67;;;5.71;74.62
34065;BME280;20339;49.754;20.158;2023-04-08T13:23:03;97078.86;;;5.67;74.82
34065;BME280;20339;49.754;20.158;2023-04-08T13:25:34;97080.30;;;5.60;74.84